Terminal Aerodrome Forecast
Issued by NWS

Home | Current Version | Previous Version | Graphics & Text | Print | Product List | Glossary On
Versions: 1 2 3 4 5 6 7 8 9 10 11 12 13 14 15
000
FTUS42 KMHX 200500
TAFISO
TAF
KISO 200540Z 2006/2106 35002KT P6SM SCT040
     FM200900 01002KT 4SM BR BKN007
     FM201400 02005KT P6SM SCT040
     FM201900 04005KT P6SM VCTS BKN040CB
     FM210000 VRB02KT P6SM SCT200
      AMD LTD TO CLD VIS AND WIND=

USA.gov is the U.S. government's official web portal to all federal, state and local government web resources and services.